sensor_id;sensor_type;location;lat;lon;timestamp;temperature;humidity
7902;DHT22;3996;49.674;10.716;2022-12-15T00:02:20;-3.20;52.70
7902;DHT22;3996;49.674;10.716;2022-12-15T00:05:04;-3.40;53.00
7902;DHT22;3996;49.674;10.716;2022-12-15T00:07:49;-3.40;54.40
7902;DHT22;3996;49.674;10.716;2022-12-15T00:10:33;-3.30;53.60
7902;DHT22;3996;49.674;10.716;2022-12-15T00:13:18;-3.50;53.70
7902;DHT22;3996;49.674;10.716;2022-12-15T00:16:02;-3.50;55.60
7902;DHT22;3996;49.674;10.716;2022-12-15T00:18:46;-3.50;54.50
7902;DHT22;3996;49.674;10.716;2022-12-15T00:21:30;-3.40;53.30
7902;DHT22;3996;49.674;10.716;2022-12-15T00:24:14;-3.60;54.20
7902;DHT22;3996;49.674;10.716;2022-12-15T00:26:58;-3.90;56.40
7902;DHT22;3996;49.674;10.716;2022-12-15T00:29:42;-3.90;54.80
7902;DHT22;3996;49.674;10.716;2022-12-15T00:32:26;-3.80;55.30
7902;DHT22;3996;49.674;10.716;2022-12-15T00:35:10;-3.50;55.20
7902;DHT22;3996;49.674;10.716;2022-12-15T00:37:54;-3.40;53.90
7902;DHT22;3996;49.674;10.716;2022-12-15T00:40:38;-3.60;52.20
7902;DHT22;3996;49.674;10.716;2022-12-15T00:43:04;-3.60;54.20
7902;DHT22;3996;49.674;10.716;2022-12-15T00:45:30;-3.50;54.30
7902;DHT22;3996;49.674;10.716;2022-12-15T00:48:14;-3.40;54.50
7902;DHT22;3996;49.674;10.716;2022-12-15T00:50:43;-3.40;53.70
7902;DHT22;3996;49.674;10.716;2022-12-15T00:53:19;-3.30;53.90
7902;DHT22;3996;49.674;10.716;2022-12-15T00:56:03;-3.20;52.80
7902;DHT22;3996;49.674;10.716;2022-12-15T00:58:47;-3.10;51.70
7902;DHT22;3996;49.674;10.716;2022-12-15T01:01:31;-3.20;51.80
7902;DHT22;3996;49.674;10.716;2022-12-15T01:04:15;-3.30;52.30
7902;DHT22;3996;49.674;10.716;2022-12-15T01:06:59;-3.40;53.40
7902;DHT22;3996;49.674;10.716;2022-12-15T01:09:43;-3.30;53.60
7902;DHT22;3996;49.674;10.716;2022-12-15T01:12:27;-3.20;53.60
7902;DHT22;3996;49.674;10.716;2022-12-15T01:15:12;-3.20;53.10
7902;DHT22;3996;49.674;10.716;2022-12-15T01:17:56;-3.30;54.10
7902;DHT22;3996;49.674;10.716;2022-12-15T01:20:40;-3.20;54.00
7902;DHT22;3996;49.674;10.716;2022-12-15T01:23:06;-3.20;55.10
7902;DHT22;3996;49.674;10.716;2022-12-15T01:25:31;-3.20;55.40
7902;DHT22;3996;49.674;10.716;2022-12-15T01:27:57;-3.20;55.40
7902;DHT22;3996;49.674;10.716;2022-12-15T01:30:24;-3.10;54.90
7902;DHT22;3996;49.674;10.716;2022-12-15T01:32:50;-3.30;55.30
7902;DHT22;3996;49.674;10.716;2022-12-15T01:35:16;-3.40;55.90
7902;DHT22;3996;49.674;10.716;2022-12-15T01:37:42;-3.40;56.80
7902;DHT22;3996;49.674;10.716;2022-12-15T01:40:12;-3.50;57.40
7902;DHT22;3996;49.674;10.716;2022-12-15T01:42:57;-3.40;58.30
7902;DHT22;3996;49.674;10.716;2022-12-15T01:47:54;-3.50;58.90
7902;DHT22;3996;49.674;10.716;2022-12-15T01:50:21;-3.40;58.10
7902;DHT22;3996;49.674;10.716;2022-12-15T01:52:48;-3.30;57.90
7902;DHT22;3996;49.674;10.716;2022-12-15T01:55:16;-3.20;57.00
7902;DHT22;3996;49.674;10.716;2022-12-15T01:57:44;-3.10;55.50
7902;DHT22;3996;49.674;10.716;2022-12-15T02:00:11;-3.10;55.50
7902;DHT22;3996;49.674;10.716;2022-12-15T02:02:38;-3.40;55.60
7902;DHT22;3996;49.674;10.716;2022-12-15T02:05:05;-3.60;57.60
7902;DHT22;3996;49.674;10.716;2022-12-15T02:07:31;-3.40;59.20
7902;DHT22;3996;49.674;10.716;2022-12-15T02:09:59;-3.30;57.60
7902;DHT22;3996;49.674;10.716;2022-12-15T02:14:58;-3.60;58.80
7902;DHT22;3996;49.674;10.716;2022-12-15T02:18:04;-3.50;59.10
7902;DHT22;3996;49.674;10.716;2022-12-15T02:29:30;-3.10;56.70
7902;DHT22;3996;49.674;10.716;2022-12-15T02:32:09;-3.00;55.60
7902;DHT22;3996;49.674;10.716;2022-12-15T02:34:42;-3.00;55.40
7902;DHT22;3996;49.674;10.716;2022-12-15T02:37:24;-3.10;55.20
7902;DHT22;3996;49.674;10.716;2022-12-15T02:39:50;-3.10;55.60
7902;DHT22;3996;49.674;10.716;2022-12-15T02:42:16;-3.10;55.70
7902;DHT22;3996;49.674;10.716;2022-12-15T02:47:33;-3.30;55.90
7902;DHT22;3996;49.674;10.716;2022-12-15T02:58:24;-3.10;56.10
7902;DHT22;3996;49.674;10.716;2022-12-15T03:01:14;-3.00;55.70
7902;DHT22;3996;49.674;10.716;2022-12-15T03:03:41;-3.10;55.50
7902;DHT22;3996;49.674;10.716;2022-12-15T03:06:08;-3.10;56.20
7902;DHT22;3996;49.674;10.716;2022-12-15T03:08:34;-3.20;57.10
7902;DHT22;3996;49.674;10.716;2022-12-15T03:11:00;-3.20;57.40
7902;DHT22;3996;49.674;10.716;2022-12-15T03:13:26;-3.10;57.70
7902;DHT22;3996;49.674;10.716;2022-12-15T03:15:52;-3.20;57.20
7902;DHT22;3996;49.674;10.716;2022-12-15T03:18:18;-3.30;58.80
7902;DHT22;3996;49.674;10.716;2022-12-15T03:20:44;-3.20;58.60
7902;DHT22;3996;49.674;10.716;2022-12-15T03:23:10;-3.10;57.50
7902;DHT22;3996;49.674;10.716;2022-12-15T03:25:35;-3.10;58.00
7902;DHT22;3996;49.674;10.716;2022-12-15T03:28:01;-3.10;57.10
7902;DHT22;3996;49.674;10.716;2022-12-15T03:30:27;-3.10;58.30
7902;DHT22;3996;49.674;10.716;2022-12-15T03:32:52;-3.10;57.90
7902;DHT22;3996;49.674;10.716;2022-12-15T03:35:18;-3.20;58.50
7902;DHT22;3996;49.674;10.716;2022-12-15T03:37:43;-3.10;58.70
7902;DHT22;3996;49.674;10.716;2022-12-15T03:40:10;-3.10;58.50
7902;DHT22;3996;49.674;10.716;2022-12-15T03:42:35;-3.20;58.80
7902;DHT22;3996;49.674;10.716;2022-12-15T03:45:26;-3.20;59.00
7902;DHT22;3996;49.674;10.716;2022-12-15T03:47:53;-3.20;60.00
7902;DHT22;3996;49.674;10.716;2022-12-15T03:50:21;-3.00;59.60
7902;DHT22;3996;49.674;10.716;2022-12-15T03:53:01;-2.90;58.90
7902;DHT22;3996;49.674;10.716;2022-12-15T03:55:27;-3.20;58.40
7902;DHT22;3996;49.674;10.716;2022-12-15T03:57:56;-3.20;59.20
7902;DHT22;3996;49.674;10.716;2022-12-15T04:00:22;-3.20;59.40
7902;DHT22;3996;49.674;10.716;2022-12-15T04:02:51;-3.10;59.50
7902;DHT22;3996;49.674;10.716;2022-12-15T04:05:26;-3.20;59.00
7902;DHT22;3996;49.674;10.716;2022-12-15T04:07:54;-3.30;58.90
7902;DHT22;3996;49.674;10.716;2022-12-15T04:10:20;-3.30;60.50
7902;DHT22;3996;49.674;10.716;2022-12-15T04:12:46;-3.10;59.50
7902;DHT22;3996;49.674;10.716;2022-12-15T04:15:11;-3.20;57.40
7902;DHT22;3996;49.674;10.716;2022-12-15T04:17:37;-3.40;57.60
7902;DHT22;3996;49.674;10.716;2022-12-15T04:20:04;-3.30;58.70
7902;DHT22;3996;49.674;10.716;2022-12-15T04:22:37;-3.20;57.90
7902;DHT22;3996;49.674;10.716;2022-12-15T04:25:04;-3.10;57.10
7902;DHT22;3996;49.674;10.716;2022-12-15T04:27:48;-3.10;56.30
7902;DHT22;3996;49.674;10.716;2022-12-15T04:30:32;-3.10;56.20
7902;DHT22;3996;49.674;10.716;2022-12-15T04:33:17;-3.30;55.50
7902;DHT22;3996;49.674;10.716;2022-12-15T04:36:01;-3.40;56.70
7902;DHT22;3996;49.674;10.716;2022-12-15T04:38:46;-3.20;56.50
7902;DHT22;3996;49.674;10.716;2022-12-15T04:41:31;-3.40;55.80
7902;DHT22;3996;49.674;10.716;2022-12-15T04:44:15;-3.30;57.10
7902;DHT22;3996;49.674;10.716;2022-12-15T04:46:59;-3.40;56.10
7902;DHT22;3996;49.674;10.716;2022-12-15T04:49:43;-3.50;56.60
7902;DHT22;3996;49.674;10.716;2022-12-15T04:52:27;-3.40;56.80
7902;DHT22;3996;49.674;10.716;2022-12-15T04:55:11;-3.50;56.40
7902;DHT22;3996;49.674;10.716;2022-12-15T04:57:56;-3.40;56.00
7902;DHT22;3996;49.674;10.716;2022-12-15T05:00:39;-3.30;55.10
7902;DHT22;3996;49.674;10.716;2022-12-15T05:03:23;-3.20;54.40
7902;DHT22;3996;49.674;10.716;2022-12-15T05:06:07;-3.40;54.60
7902;DHT22;3996;49.674;10.716;2022-12-15T05:08:51;-3.40;55.00
7902;DHT22;3996;49.674;10.716;2022-12-15T05:11:36;-3.40;55.00
7902;DHT22;3996;49.674;10.716;2022-12-15T05:14:20;-3.80;56.10
7902;DHT22;3996;49.674;10.716;2022-12-15T05:17:04;-3.60;57.70
7902;DHT22;3996;49.674;10.716;2022-12-15T05:19:48;-3.60;57.10
7902;DHT22;3996;49.674;10.716;2022-12-15T05:22:33;-3.50;57.30
7902;DHT22;3996;49.674;10.716;2022-12-15T05:25:17;-3.50;56.80
7902;DHT22;3996;49.674;10.716;2022-12-15T05:28:05;-3.40;56.00
7902;DHT22;3996;49.674;10.716;2022-12-15T05:30:49;-3.40;55.70
7902;DHT22;3996;49.674;10.716;2022-12-15T05:33:34;-3.50;55.10
7902;DHT22;3996;49.674;10.716;2022-12-15T05:36:00;-3.50;56.30
7902;DHT22;3996;49.674;10.716;2022-12-15T05:38:25;-3.80;57.20
7902;DHT22;3996;49.674;10.716;2022-12-15T05:40:51;-3.60;58.50
7902;DHT22;3996;49.674;10.716;2022-12-15T05:43:16;-3.50;57.90
7902;DHT22;3996;49.674;10.716;2022-12-15T05:45:42;-3.50;57.90
7902;DHT22;3996;49.674;10.716;2022-12-15T05:48:07;-3.40;57.50
7902;DHT22;3996;49.674;10.716;2022-12-15T05:50:33;-3.40;56.80
7902;DHT22;3996;49.674;10.716;2022-12-15T05:52:58;-3.40;56.30
7902;DHT22;3996;49.674;10.716;2022-12-15T05:55:24;-3.40;56.60
7902;DHT22;3996;49.674;10.716;2022-12-15T05:57:51;-3.40;55.40
7902;DHT22;3996;49.674;10.716;2022-12-15T06:00:17;-3.50;56.00
7902;DHT22;3996;49.674;10.716;2022-12-15T06:02:42;-3.50;57.10
7902;DHT22;3996;49.674;10.716;2022-12-15T06:05:08;-3.40;56.40
7902;DHT22;3996;49.674;10.716;2022-12-15T06:07:34;-3.40;56.10
7902;DHT22;3996;49.674;10.716;2022-12-15T06:10:00;-3.40;55.50
7902;DHT22;3996;49.674;10.716;2022-12-15T06:12:27;-3.50;55.80
7902;DHT22;3996;49.674;10.716;2022-12-15T06:14:52;-3.50;56.20
7902;DHT22;3996;49.674;10.716;2022-12-15T06:17:18;-3.60;57.10
7902;DHT22;3996;49.674;10.716;2022-12-15T06:19:43;-3.50;56.40
7902;DHT22;3996;49.674;10.716;2022-12-15T06:22:09;-3.60;56.60
7902;DHT22;3996;49.674;10.716;2022-12-15T06:24:34;-3.70;56.90
7902;DHT22;3996;49.674;10.716;2022-12-15T06:27:00;-3.60;57.10
7902;DHT22;3996;49.674;10.716;2022-12-15T06:29:26;-3.60;57.00
7902;DHT22;3996;49.674;10.716;2022-12-15T06:31:51;-3.60;56.10
7902;DHT22;3996;49.674;10.716;2022-12-15T06:34:18;-3.70;55.00
7902;DHT22;3996;49.674;10.716;2022-12-15T06:36:44;-3.60;55.40
7902;DHT22;3996;49.674;10.716;2022-12-15T06:39:14;-3.80;54.90
7902;DHT22;3996;49.674;10.716;2022-12-15T06:41:40;-3.80;55.50
7902;DHT22;3996;49.674;10.716;2022-12-15T06:44:06;-3.70;54.50
7902;DHT22;3996;49.674;10.716;2022-12-15T06:46:33;-3.60;54.10
7902;DHT22;3996;49.674;10.716;2022-12-15T06:48:59;-3.60;52.90
7902;DHT22;3996;49.674;10.716;2022-12-15T06:51:25;-3.80;53.40
7902;DHT22;3996;49.674;10.716;2022-12-15T06:53:51;-3.70;54.20
7902;DHT22;3996;49.674;10.716;2022-12-15T06:56:30;-3.80;53.50
7902;DHT22;3996;49.674;10.716;2022-12-15T06:58:56;-3.80;53.30
7902;DHT22;3996;49.674;10.716;2022-12-15T07:01:26;-3.80;51.20
7902;DHT22;3996;49.674;10.716;2022-12-15T07:03:52;-3.90;51.40
7902;DHT22;3996;49.674;10.716;2022-12-15T07:06:18;-3.80;51.60
7902;DHT22;3996;49.674;10.716;2022-12-15T07:08:48;-3.70;50.40
7902;DHT22;3996;49.674;10.716;2022-12-15T07:11:16;-3.90;50.00
7902;DHT22;3996;49.674;10.716;2022-12-15T07:13:42;-4.10;50.30
7902;DHT22;3996;49.674;10.716;2022-12-15T07:16:08;-4.10;49.40
7902;DHT22;3996;49.674;10.716;2022-12-15T07:18:35;-4.20;49.30
7902;DHT22;3996;49.674;10.716;2022-12-15T07:21:02;-4.30;50.40
7902;DHT22;3996;49.674;10.716;2022-12-15T07:23:29;-4.20;50.40
7902;DHT22;3996;49.674;10.716;2022-12-15T07:25:54;-4.10;49.90
7902;DHT22;3996;49.674;10.716;2022-12-15T07:28:20;-4.20;48.70
7902;DHT22;3996;49.674;10.716;2022-12-15T07:30:46;-4.30;48.10
7902;DHT22;3996;49.674;10.716;2022-12-15T07:33:12;-4.20;49.20
7902;DHT22;3996;49.674;10.716;2022-12-15T07:35:38;-4.30;48.30
7902;DHT22;3996;49.674;10.716;2022-12-15T07:38:06;-4.50;48.90
7902;DHT22;3996;49.674;10.716;2022-12-15T07:40:33;-4.60;50.70
7902;DHT22;3996;49.674;10.716;2022-12-15T07:42:59;-4.40;50.80
7902;DHT22;3996;49.674;10.716;2022-12-15T07:45:24;-4.10;49.30
7902;DHT22;3996;49.674;10.716;2022-12-15T07:47:50;-4.00;48.40
7902;DHT22;3996;49.674;10.716;2022-12-15T07:50:17;-4.00;47.70
7902;DHT22;3996;49.674;10.716;2022-12-15T07:52:43;-4.10;46.90
7902;DHT22;3996;49.674;10.716;2022-12-15T07:55:09;-4.40;48.30
7902;DHT22;3996;49.674;10.716;2022-12-15T07:57:35;-4.50;49.30
7902;DHT22;3996;49.674;10.716;2022-12-15T08:00:00;-4.40;50.30
7902;DHT22;3996;49.674;10.716;2022-12-15T08:02:26;-4.30;48.10
7902;DHT22;3996;49.674;10.716;2022-12-15T08:04:52;-3.80;47.40
7902;DHT22;3996;49.674;10.716;2022-12-15T08:07:17;-3.30;46.00
7902;DHT22;3996;49.674;10.716;2022-12-15T08:09:43;-2.70;42.90
7902;DHT22;3996;49.674;10.716;2022-12-15T08:12:09;-2.30;41.30
7902;DHT22;3996;49.674;10.716;2022-12-15T08:14:34;-1.60;40.50
7902;DHT22;3996;49.674;10.716;2022-12-15T08:17:01;-1.30;39.10
7902;DHT22;3996;49.674;10.716;2022-12-15T08:19:26;-1.40;38.30
7902;DHT22;3996;49.674;10.716;2022-12-15T08:21:52;-0.90;37.80
7902;DHT22;3996;49.674;10.716;2022-12-15T08:24:17;-0.90;36.90
7902;DHT22;3996;49.674;10.716;2022-12-15T08:26:43;-0.90;36.80
7902;DHT22;3996;49.674;10.716;2022-12-15T08:29:11;-0.60;37.10
7902;DHT22;3996;49.674;10.716;2022-12-15T08:31:38;-0.90;37.60
7902;DHT22;3996;49.674;10.716;2022-12-15T08:34:04;-0.80;38.00
7902;DHT22;3996;49.674;10.716;2022-12-15T08:36:30;-0.80;38.10
7902;DHT22;3996;49.674;10.716;2022-12-15T08:38:56;-1.00;38.10
7902;DHT22;3996;49.674;10.716;2022-12-15T08:41:24;-1.30;39.00
7902;DHT22;3996;49.674;10.716;2022-12-15T08:43:52;-1.10;38.50
7902;DHT22;3996;49.674;10.716;2022-12-15T08:46:20;-0.70;37.60
7902;DHT22;3996;49.674;10.716;2022-12-15T08:48:47;-0.90;37.30
7902;DHT22;3996;49.674;10.716;2022-12-15T08:51:14;-1.10;37.80
7902;DHT22;3996;49.674;10.716;2022-12-15T08:53:39;-0.90;37.90
7902;DHT22;3996;49.674;10.716;2022-12-15T08:56:07;-0.80;36.50
7902;DHT22;3996;49.674;10.716;2022-12-15T08:58:33;-0.80;37.20
7902;DHT22;3996;49.674;10.716;2022-12-15T09:01:04;-0.80;37.70
7902;DHT22;3996;49.674;10.716;2022-12-15T09:03:31;-0.80;37.10
7902;DHT22;3996;49.674;10.716;2022-12-15T09:06:01;-0.70;37.60
7902;DHT22;3996;49.674;10.716;2022-12-15T09:08:28;-0.90;39.50
7902;DHT22;3996;49.674;10.716;2022-12-15T09:10:56;-1.00;39.50
7902;DHT22;3996;49.674;10.716;2022-12-15T09:13:23;-1.00;40.30
7902;DHT22;3996;49.674;10.716;2022-12-15T09:16:04;-1.00;39.20
7902;DHT22;3996;49.674;10.716;2022-12-15T09:18:30;-1.10;40.00
7902;DHT22;3996;49.674;10.716;2022-12-15T09:21:00;-0.90;41.40
7902;DHT22;3996;49.674;10.716;2022-12-15T09:23:27;-0.70;41.50
7902;DHT22;3996;49.674;10.716;2022-12-15T09:26:03;-0.50;40.60
7902;DHT22;3996;49.674;10.716;2022-12-15T09:28:29;-0.50;41.00
7902;DHT22;3996;49.674;10.716;2022-12-15T09:31:29;-0.50;40.00
7902;DHT22;3996;49.674;10.716;2022-12-15T09:33:59;-0.40;39.40
7902;DHT22;3996;49.674;10.716;2022-12-15T09:36:25;-0.10;39.60
7902;DHT22;3996;49.674;10.716;2022-12-15T09:38:51;0.30;38.70
7902;DHT22;3996;49.674;10.716;2022-12-15T09:41:25;0.80;37.60
7902;DHT22;3996;49.674;10.716;2022-12-15T09:43:55;1.20;36.30
7902;DHT22;3996;49.674;10.716;2022-12-15T09:48:57;1.60;34.20
7902;DHT22;3996;49.674;10.716;2022-12-15T09:51:40;1.30;34.70
7902;DHT22;3996;49.674;10.716;2022-12-15T09:54:09;1.00;35.10
7902;DHT22;3996;49.674;10.716;2022-12-15T09:56:48;2.10;34.60
7902;DHT22;3996;49.674;10.716;2022-12-15T09:59:37;2.30;33.20
7902;DHT22;3996;49.674;10.716;2022-12-15T10:04:55;4.10;29.50
7902;DHT22;3996;49.674;10.716;2022-12-15T10:07:28;4.90;27.50
7902;DHT22;3996;49.674;10.716;2022-12-15T10:09:55;6.10;25.80
7902;DHT22;3996;49.674;10.716;2022-12-15T10:12:25;6.60;24.10
7902;DHT22;3996;49.674;10.716;2022-12-15T10:15:24;6.70;23.40
7902;DHT22;3996;49.674;10.716;2022-12-15T10:17:58;6.80;23.60
7902;DHT22;3996;49.674;10.716;2022-12-15T10:20:27;6.40;23.80
7902;DHT22;3996;49.674;10.716;2022-12-15T10:23:12;5.50;25.50
7902;DHT22;3996;49.674;10.716;2022-12-15T10:25:49;4.10;28.10
7902;DHT22;3996;49.674;10.716;2022-12-15T10:33:25;1.50;34.10
7902;DHT22;3996;49.674;10.716;2022-12-15T10:35:53;1.10;37.30
7902;DHT22;3996;49.674;10.716;2022-12-15T10:38:35;0.70;37.80
7902;DHT22;3996;49.674;10.716;2022-12-15T10:41:07;0.40;38.60
7902;DHT22;3996;49.674;10.716;2022-12-15T10:43:39;0.40;40.70
7902;DHT22;3996;49.674;10.716;2022-12-15T10:46:15;0.80;41.20
7902;DHT22;3996;49.674;10.716;2022-12-15T10:48:57;1.10;40.10
7902;DHT22;3996;49.674;10.716;2022-12-15T10:51:36;1.10;38.70
7902;DHT22;3996;49.674;10.716;2022-12-15T10:56:59;0.90;38.70
7902;DHT22;3996;49.674;10.716;2022-12-15T10:59:37;0.80;39.70
7902;DHT22;3996;49.674;10.716;2022-12-15T11:05:14;0.70;41.60
7902;DHT22;3996;49.674;10.716;2022-12-15T11:07:48;0.90;41.60
7902;DHT22;3996;49.674;10.716;2022-12-15T11:10:24;0.90;41.40
7902;DHT22;3996;49.674;10.716;2022-12-15T11:13:09;0.90;41.60
7902;DHT22;3996;49.674;10.716;2022-12-15T11:15:48;0.90;42.30
7902;DHT22;3996;49.674;10.716;2022-12-15T11:18:34;0.90;41.90
7902;DHT22;3996;49.674;10.716;2022-12-15T11:27:00;0.80;42.20
7902;DHT22;3996;49.674;10.716;2022-12-15T11:29:30;0.70;42.10
7902;DHT22;3996;49.674;10.716;2022-12-15T11:31:59;0.60;42.90
7902;DHT22;3996;49.674;10.716;2022-12-15T11:34:29;0.50;42.00
7902;DHT22;3996;49.674;10.716;2022-12-15T11:45:34;0.50;42.80
7902;DHT22;3996;49.674;10.716;2022-12-15T11:48:13;0.60;42.00
7902;DHT22;3996;49.674;10.716;2022-12-15T11:50:50;0.40;42.00
7902;DHT22;3996;49.674;10.716;2022-12-15T11:56:06;0.10;44.10
7902;DHT22;3996;49.674;10.716;2022-12-15T12:01:33;0.10;45.30
7902;DHT22;3996;49.674;10.716;2022-12-15T12:07:29;0.10;44.90
7902;DHT22;3996;49.674;10.716;2022-12-15T12:17:42;0.30;47.10
7902;DHT22;3996;49.674;10.716;2022-12-15T12:20:26;0.20;47.10
7902;DHT22;3996;49.674;10.716;2022-12-15T12:23:05;0.20;47.40
7902;DHT22;3996;49.674;10.716;2022-12-15T12:25:56;0.20;48.00
7902;DHT22;3996;49.674;10.716;2022-12-15T12:28:28;0.10;47.90
7902;DHT22;3996;49.674;10.716;2022-12-15T12:30:58;0.10;47.40
7902;DHT22;3996;49.674;10.716;2022-12-15T12:33:39;0.10;47.80
7902;DHT22;3996;49.674;10.716;2022-12-15T12:36:08;0.10;48.50
7902;DHT22;3996;49.674;10.716;2022-12-15T12:38:39;0.00;47.80
7902;DHT22;3996;49.674;10.716;2022-12-15T12:44:08;0.00;48.40
7902;DHT22;3996;49.674;10.716;2022-12-15T12:46:49;0.00;48.30
7902;DHT22;3996;49.674;10.716;2022-12-15T12:52:00;-0.10;48.20
7902;DHT22;3996;49.674;10.716;2022-12-15T12:59:39;-0.10;47.50
7902;DHT22;3996;49.674;10.716;2022-12-15T13:07:33;-0.20;49.20
7902;DHT22;3996;49.674;10.716;2022-12-15T13:10:12;-0.20;48.70
7902;DHT22;3996;49.674;10.716;2022-12-15T13:12:51;-0.40;48.60
7902;DHT22;3996;49.674;10.716;2022-12-15T13:18:04;-0.50;50.40
7902;DHT22;3996;49.674;10.716;2022-12-15T13:20:36;-0.50;50.00
7902;DHT22;3996;49.674;10.716;2022-12-15T13:44:29;-0.60;49.60
7902;DHT22;3996;49.674;10.716;2022-12-15T13:47:03;-0.70;50.20
7902;DHT22;3996;49.674;10.716;2022-12-15T13:55:18;-0.70;49.40
7902;DHT22;3996;49.674;10.716;2022-12-15T13:58:16;-0.70;49.30
7902;DHT22;3996;49.674;10.716;2022-12-15T14:00:51;-0.80;49.00
7902;DHT22;3996;49.674;10.716;2022-12-15T14:03:17;-0.90;49.20
7902;DHT22;3996;49.674;10.716;2022-12-15T14:05:57;-0.90;49.50
7902;DHT22;3996;49.674;10.716;2022-12-15T14:08:25;-0.80;49.30
7902;DHT22;3996;49.674;10.716;2022-12-15T14:10:53;-0.90;47.80
7902;DHT22;3996;49.674;10.716;2022-12-15T14:13:27;-1.00;48.50
7902;DHT22;3996;49.674;10.716;2022-12-15T14:15:54;-0.90;48.30
7902;DHT22;3996;49.674;10.716;2022-12-15T14:18:35;-0.90;48.60
7902;DHT22;3996;49.674;10.716;2022-12-15T14:21:06;-0.90;48.40
7902;DHT22;3996;49.674;10.716;2022-12-15T14:23:43;-1.10;48.60
7902;DHT22;3996;49.674;10.716;2022-12-15T14:26:10;-1.00;48.70
7902;DHT22;3996;49.674;10.716;2022-12-15T14:28:39;-1.10;47.20
7902;DHT22;3996;49.674;10.716;2022-12-15T14:31:09;-1.50;49.00
7902;DHT22;3996;49.674;10.716;2022-12-15T14:33:37;-1.40;49.70
7902;DHT22;3996;49.674;10.716;2022-12-15T14:36:07;-1.30;49.80
7902;DHT22;3996;49.674;10.716;2022-12-15T14:41:09;-1.30;48.80
7902;DHT22;3996;49.674;10.716;2022-12-15T14:43:38;-1.40;48.80
7902;DHT22;3996;49.674;10.716;2022-12-15T14:46:11;-1.40;49.10
7902;DHT22;3996;49.674;10.716;2022-12-15T14:48:44;-1.40;48.80
7902;DHT22;3996;49.674;10.716;2022-12-15T14:51:13;-1.50;49.00
7902;DHT22;3996;49.674;10.716;2022-12-15T14:53:40;-1.60;49.20
7902;DHT22;3996;49.674;10.716;2022-12-15T14:56:19;-1.80;49.40
7902;DHT22;3996;49.674;10.716;2022-12-15T15:01:27;-1.80;50.40
7902;DHT22;3996;49.674;10.716;2022-12-15T15:04:05;-1.90;50.50
7902;DHT22;3996;49.674;10.716;2022-12-15T15:06:37;-1.80;50.70
7902;DHT22;3996;49.674;10.716;2022-12-15T15:11:39;-2.00;51.00
7902;DHT22;3996;49.674;10.716;2022-12-15T15:14:15;-2.00;51.30
7902;DHT22;3996;49.674;10.716;2022-12-15T15:16:42;-2.00;50.90
7902;DHT22;3996;49.674;10.716;2022-12-15T15:19:15;-1.90;50.20
7902;DHT22;3996;49.674;10.716;2022-12-15T15:21:44;-2.00;51.10
7902;DHT22;3996;49.674;10.716;2022-12-15T15:26:37;-2.10;50.20
7902;DHT22;3996;49.674;10.716;2022-12-15T15:29:37;-2.00;51.20
7902;DHT22;3996;49.674;10.716;2022-12-15T15:32:25;-2.10;51.10
7902;DHT22;3996;49.674;10.716;2022-12-15T15:34:50;-2.00;50.70
7902;DHT22;3996;49.674;10.716;2022-12-15T15:37:19;-2.10;50.40
7902;DHT22;3996;49.674;10.716;2022-12-15T15:39:53;-2.00;50.50
7902;DHT22;3996;49.674;10.716;2022-12-15T15:42:19;-2.10;50.40
7902;DHT22;3996;49.674;10.716;2022-12-15T15:44:45;-2.20;50.60
7902;DHT22;3996;49.674;10.716;2022-12-15T15:49:44;-2.30;50.80
7902;DHT22;3996;49.674;10.716;2022-12-15T15:52:12;-2.40;50.60
7902;DHT22;3996;49.674;10.716;2022-12-15T15:54:37;-2.40;51.40
7902;DHT22;3996;49.674;10.716;2022-12-15T15:57:03;-2.40;51.40
7902;DHT22;3996;49.674;10.716;2022-12-15T15:59:28;-2.40;52.00
7902;DHT22;3996;49.674;10.716;2022-12-15T16:01:55;-2.30;52.40
7902;DHT22;3996;49.674;10.716;2022-12-15T16:04:22;-2.30;52.00
7902;DHT22;3996;49.674;10.716;2022-12-15T16:06:49;-2.30;52.40
7902;DHT22;3996;49.674;10.716;2022-12-15T16:09:15;-2.20;52.20
7902;DHT22;3996;49.674;10.716;2022-12-15T16:11:41;-2.20;52.00
7902;DHT22;3996;49.674;10.716;2022-12-15T16:14:15;-2.20;51.20
7902;DHT22;3996;49.674;10.716;2022-12-15T16:16:41;-2.30;51.20
7902;DHT22;3996;49.674;10.716;2022-12-15T16:19:07;-2.30;52.00
7902;DHT22;3996;49.674;10.716;2022-12-15T16:21:34;-2.20;51.50
7902;DHT22;3996;49.674;10.716;2022-12-15T16:24:06;-2.20;52.80
7902;DHT22;3996;49.674;10.716;2022-12-15T16:26:34;-2.20;52.20
7902;DHT22;3996;49.674;10.716;2022-12-15T16:29:13;-2.10;51.50
7902;DHT22;3996;49.674;10.716;2022-12-15T16:31:39;-2.10;51.10
7902;DHT22;3996;49.674;10.716;2022-12-15T16:34:13;-2.20;51.00
7902;DHT22;3996;49.674;10.716;2022-12-15T16:36:40;-2.30;51.70
7902;DHT22;3996;49.674;10.716;2022-12-15T16:39:45;-2.20;52.20
7902;DHT22;3996;49.674;10.716;2022-12-15T16:42:19;-2.30;52.80
7902;DHT22;3996;49.674;10.716;2022-12-15T16:45:27;-2.30;52.50
7902;DHT22;3996;49.674;10.716;2022-12-15T16:47:57;-2.20;52.20
7902;DHT22;3996;49.674;10.716;2022-12-15T16:50:36;-2.20;51.80
7902;DHT22;3996;49.674;10.716;2022-12-15T16:53:30;-2.20;51.50
7902;DHT22;3996;49.674;10.716;2022-12-15T16:56:17;-2.30;52.10
7902;DHT22;3996;49.674;10.716;2022-12-15T16:58:43;-2.30;52.30
7902;DHT22;3996;49.674;10.716;2022-12-15T17:01:10;-2.30;52.10
7902;DHT22;3996;49.674;10.716;2022-12-15T17:03:37;-2.30;52.40
7902;DHT22;3996;49.674;10.716;2022-12-15T17:06:05;-2.30;52.60
7902;DHT22;3996;49.674;10.716;2022-12-15T17:08:45;-2.30;52.10
7902;DHT22;3996;49.674;10.716;2022-12-15T17:11:29;-2.40;52.40
7902;DHT22;3996;49.674;10.716;2022-12-15T17:14:01;-2.40;53.20
7902;DHT22;3996;49.674;10.716;2022-12-15T17:16:29;-2.30;52.80
7902;DHT22;3996;49.674;10.716;2022-12-15T17:18:55;-2.50;52.80
7902;DHT22;3996;49.674;10.716;2022-12-15T17:21:59;-2.50;54.00
7902;DHT22;3996;49.674;10.716;2022-12-15T17:24:41;-2.30;53.80
7902;DHT22;3996;49.674;10.716;2022-12-15T17:27:24;-2.50;54.60
7902;DHT22;3996;49.674;10.716;2022-12-15T17:29:54;-2.50;55.00
7902;DHT22;3996;49.674;10.716;2022-12-15T17:32:23;-2.40;54.80
7902;DHT22;3996;49.674;10.716;2022-12-15T17:34:49;-2.50;55.50
7902;DHT22;3996;49.674;10.716;2022-12-15T17:37:14;-2.40;55.20
7902;DHT22;3996;49.674;10.716;2022-12-15T17:39:53;-2.30;54.00
7902;DHT22;3996;49.674;10.716;2022-12-15T17:42:22;-2.30;53.20
7902;DHT22;3996;49.674;10.716;2022-12-15T17:44:55;-2.30;52.80
7902;DHT22;3996;49.674;10.716;2022-12-15T17:47:21;-2.30;53.00
7902;DHT22;3996;49.674;10.716;2022-12-15T17:49:49;-2.50;53.60
7902;DHT22;3996;49.674;10.716;2022-12-15T17:52:31;-2.50;54.90
7902;DHT22;3996;49.674;10.716;2022-12-15T17:55:34;-2.60;54.90
7902;DHT22;3996;49.674;10.716;2022-12-15T17:58:28;-2.50;56.00
7902;DHT22;3996;49.674;10.716;2022-12-15T18:01:44;-2.30;54.90
7902;DHT22;3996;49.674;10.716;2022-12-15T18:04:14;-2.30;54.10
7902;DHT22;3996;49.674;10.716;2022-12-15T18:07:37;-2.30;54.40
7902;DHT22;3996;49.674;10.716;2022-12-15T18:10:21;-2.40;54.70
7902;DHT22;3996;49.674;10.716;2022-12-15T18:13:27;-2.30;54.70
7902;DHT22;3996;49.674;10.716;2022-12-15T18:15:58;-2.30;54.20
7902;DHT22;3996;49.674;10.716;2022-12-15T18:18:25;-2.30;54.40
7902;DHT22;3996;49.674;10.716;2022-12-15T18:20:58;-2.30;54.60
7902;DHT22;3996;49.674;10.716;2022-12-15T18:23:31;-2.30;55.20
7902;DHT22;3996;49.674;10.716;2022-12-15T18:26:01;-2.30;55.00
7902;DHT22;3996;49.674;10.716;2022-12-15T18:28:32;-2.30;54.80
7902;DHT22;3996;49.674;10.716;2022-12-15T18:31:31;-2.30;54.70
7902;DHT22;3996;49.674;10.716;2022-12-15T18:33:59;-2.30;54.30
7902;DHT22;3996;49.674;10.716;2022-12-15T18:36:29;-2.30;53.90